createdAt,value
2017-10-05T00:00:02.466Z,0
2017-10-05T00:01:02.295Z,0
2017-10-05T00:02:01.467Z,0
2017-10-05T00:03:02.072Z,0
2017-10-05T00:04:01.769Z,0
2017-10-05T00:05:02.411Z,0
2017-10-05T00:06:02.367Z,0
2017-10-05T00:07:02.346Z,0
2017-10-05T00:08:02.311Z,0
2017-10-05T00:09:02.022Z,0
2017-10-05T00:10:02.270Z,0
2017-10-05T00:11:01.722Z,0
2017-10-05T00:12:02.235Z,0
2017-10-05T00:13:02.262Z,0
2017-10-05T00:14:01.850Z,0
2017-10-05T00:15:02.251Z,0
2017-10-05T00:16:01.524Z,0
2017-10-05T00:17:02.123Z,0
2017-10-05T00:18:01.808Z,0
2017-10-05T00:19:02.142Z,0
2017-10-05T00:20:02.101Z,0
2017-10-05T00:21:02.050Z,0
2017-10-05T00:22:02.047Z,0
2017-10-05T00:23:01.687Z,0
2017-10-05T00:24:02.011Z,0
2017-10-05T00:25:02.030Z,0
2017-10-05T00:26:01.320Z,0
2017-10-05T00:27:01.716Z,0
2017-10-05T00:28:33.672Z,0
2017-10-05T00:29:01.911Z,0
2017-10-05T00:30:01.890Z,0
2017-10-05T00:31:01.229Z,0
2017-10-05T00:32:01.533Z,0
2017-10-05T00:33:01.500Z,0
2017-10-05T00:34:01.791Z,0
2017-10-05T00:35:01.469Z,0
2017-10-05T00:36:00.814Z,0
2017-10-05T00:37:01.419Z,0
2017-10-05T00:38:01.397Z,0
2017-10-05T00:39:01.406Z,0
2017-10-05T00:40:01.410Z,0
2017-10-05T00:41:01.339Z,0
2017-10-05T00:42:01.367Z,0
2017-10-05T00:43:01.658Z,0
2017-10-05T00:44:01.575Z,0
2017-10-05T00:45:01.572Z,0
2017-10-05T00:46:00.940Z,0
2017-10-05T00:47:01.569Z,0
2017-10-05T00:48:00.893Z,0
2017-10-05T00:49:01.176Z,0
2017-10-05T00:50:01.157Z,0
2017-10-05T00:51:01.459Z,0
2017-10-05T00:52:01.442Z,0
2017-10-05T00:53:01.095Z,0
2017-10-05T00:54:01.400Z,0
2017-10-05T00:55:01.380Z,0
2017-10-05T00:56:01.052Z,0
2017-10-05T00:57:01.332Z,0
2017-10-05T00:58:01.009Z,0
2017-10-05T00:59:00.978Z,0
2017-10-05T01:00:01.270Z,0
2017-10-05T01:01:00.628Z,0
2017-10-05T01:02:01.226Z,0
2017-10-05T01:03:01.218Z,0
2017-10-05T01:04:00.875Z,0
2017-10-05T01:05:01.180Z,0
2017-10-05T01:06:00.852Z,0
2017-10-05T01:07:01.132Z,0
2017-10-05T01:08:00.799Z,0
2017-10-05T01:09:01.151Z,0
2017-10-05T01:10:01.080Z,0
2017-10-05T01:11:01.060Z,0
2017-10-05T01:12:00.415Z,0
2017-10-05T01:13:00.388Z,0
2017-10-05T01:14:00.692Z,0
2017-10-05T01:15:00.349Z,0
2017-10-05T01:16:00.340Z,0
2017-10-05T01:17:00.319Z,0
2017-10-05T01:18:00.608Z,0
2017-10-05T01:19:00.579Z,0
2017-10-05T01:20:00.888Z,0
2017-10-05T01:21:00.865Z,0
2017-10-05T01:22:00.214Z,0
2017-10-05T01:23:00.499Z,0
2017-10-05T01:24:00.512Z,0
2017-10-05T01:25:00.759Z,0
2017-10-05T01:26:00.460Z,0
2017-10-05T01:27:00.126Z,0
2017-10-05T01:28:00.709Z,0
2017-10-05T01:29:00.428Z,0
2017-10-05T01:30:00.377Z,0
2017-10-05T01:31:00.359Z,0
2017-10-05T01:32:00.325Z,0
2017-10-05T01:33:00.072Z,0
2017-10-05T01:34:00.269Z,0
2017-10-05T01:35:00.033Z,0
2017-10-05T01:36:00.238Z,0
2017-10-05T01:36:59.918Z,0
2017-10-05T01:38:00.198Z,0
2017-10-05T01:39:00.189Z,0
2017-10-05T01:40:00.169Z,0
2017-10-05T01:41:00.149Z,0
2017-10-05T01:42:00.111Z,0
2017-10-05T01:43:00.482Z,0
2017-10-05T01:44:00.100Z,0
2017-10-05T01:45:00.374Z,0
2017-10-05T01:46:00.370Z,0
2017-10-05T01:47:00.359Z,0
2017-10-05T01:48:00.340Z,0
2017-10-05T01:48:59.991Z,0
2017-10-05T01:49:59.980Z,0
2017-10-05T01:50:59.963Z,0
2017-10-05T01:51:59.616Z,0
2017-10-05T01:53:00.319Z,0
2017-10-05T01:54:00.210Z,0
2017-10-05T01:55:00.168Z,0
2017-10-05T01:55:59.856Z,0
2017-10-05T01:56:59.867Z,0
2017-10-05T01:58:00.142Z,0
2017-10-05T01:59:00.112Z,0
2017-10-05T01:59:59.761Z,0
2017-10-05T02:00:59.736Z,0
2017-10-05T02:01:59.418Z,0
2017-10-05T02:03:00.110Z,0
2017-10-05T02:04:00.019Z,0
2017-10-05T02:04:59.980Z,0
2017-10-05T02:05:59.330Z,0
2017-10-05T02:06:59.950Z,0
2017-10-05T02:07:59.969Z,0
2017-10-05T02:08:59.948Z,0
2017-10-05T02:09:59.945Z,0
2017-10-05T02:10:59.999Z,0
2017-10-05T02:11:59.523Z,0
2017-10-05T02:12:59.816Z,0
2017-10-05T02:13:59.882Z,0
2017-10-05T02:14:59.169Z,0
2017-10-05T02:15:59.138Z,0
2017-10-05T02:16:59.441Z,0
2017-10-05T02:17:58.783Z,0
2017-10-05T02:18:59.390Z,0
2017-10-05T02:19:59.069Z,0
2017-10-05T02:20:59.038Z,0
2017-10-05T02:21:59.334Z,0
2017-10-05T02:22:59.646Z,0
2017-10-05T02:23:59.000Z,0
2017-10-05T02:24:58.957Z,0
2017-10-05T02:25:59.280Z,0
2017-10-05T02:26:59.558Z,0
2017-10-05T02:27:58.589Z,0
2017-10-05T02:28:59.604Z,0
2017-10-05T02:29:58.862Z,0
2017-10-05T02:30:59.510Z,0
2017-10-05T02:31:58.819Z,0
2017-10-05T02:32:59.423Z,0
2017-10-05T02:33:59.092Z,0
2017-10-05T02:34:59.072Z,0
2017-10-05T02:35:59.292Z,0
2017-10-05T02:36:59.029Z,0
2017-10-05T02:37:59.009Z,0
2017-10-05T02:38:58.988Z,0
2017-10-05T02:39:59.278Z,0
2017-10-05T02:40:58.959Z,0
2017-10-05T02:41:59.260Z,0
2017-10-05T02:42:59.231Z,0
2017-10-05T02:43:58.905Z,0
2017-10-05T02:44:59.228Z,0
2017-10-05T02:45:59.217Z,0
2017-10-05T02:46:59.159Z,0
2017-10-05T02:47:58.236Z,0
2017-10-05T02:48:58.485Z,0
2017-10-05T02:49:59.069Z,0
2017-10-05T02:50:59.072Z,0
2017-10-05T02:51:58.726Z,0
2017-10-05T02:52:58.406Z,0
2017-10-05T02:53:58.115Z,0
2017-10-05T02:54:58.373Z,0
2017-10-05T02:55:58.689Z,0
2017-10-05T02:56:58.375Z,0
2017-10-05T02:57:58.952Z,0
2017-10-05T02:58:58.920Z,0
2017-10-05T02:59:58.878Z,0
2017-10-05T03:00:58.918Z,0
2017-10-05T03:01:58.533Z,0
2017-10-05T03:02:58.519Z,0
2017-10-05T03:03:58.820Z,0
2017-10-05T03:04:58.479Z,0
2017-10-05T03:05:57.835Z,0
2017-10-05T03:06:58.136Z,0
2017-10-05T03:07:58.417Z,0
2017-10-05T03:08:58.730Z,0
2017-10-05T03:09:58.721Z,0
2017-10-05T03:10:58.669Z,0
2017-10-05T03:11:58.696Z,0
2017-10-05T03:12:58.659Z,0
2017-10-05T03:13:58.342Z,0
2017-10-05T03:14:57.999Z,0
2017-10-05T03:15:58.628Z,0
2017-10-05T03:16:58.268Z,0
2017-10-05T03:17:58.540Z,0
2017-10-05T03:18:57.586Z,0
2017-10-05T03:19:58.492Z,0
2017-10-05T03:20:58.520Z,0
2017-10-05T03:21:58.140Z,0
2017-10-05T03:22:57.799Z,0
2017-10-05T03:23:58.091Z,0
2017-10-05T03:24:57.770Z,0
2017-10-05T03:25:58.482Z,0
2017-10-05T03:26:57.752Z,0
2017-10-05T03:27:58.369Z,0
2017-10-05T03:28:57.991Z,0
2017-10-05T03:29:57.975Z,0
2017-10-05T03:30:58.005Z,0
2017-10-05T03:31:58.255Z,0
2017-10-05T03:32:58.286Z,0
2017-10-05T03:33:57.596Z,0
2017-10-05T03:34:58.192Z,0
2017-10-05T03:35:57.540Z,0
2017-10-05T03:36:57.830Z,0
2017-10-05T03:37:57.510Z,0
2017-10-05T03:38:57.876Z,0
2017-10-05T03:39:57.780Z,0
2017-10-05T03:40:57.770Z,0
2017-10-05T03:41:57.733Z,0
2017-10-05T03:42:58.029Z,0
2017-10-05T03:43:57.787Z,0
2017-10-05T03:44:57.670Z,0
2017-10-05T03:45:57.647Z,0
2017-10-05T03:46:57.647Z,0
2017-10-05T03:47:57.700Z,0
2017-10-05T03:48:57.950Z,0
2017-10-05T03:49:57.274Z,0
2017-10-05T03:50:57.560Z,0
2017-10-05T03:51:57.858Z,0
2017-10-05T03:52:57.522Z,0
2017-10-05T03:53:57.493Z,0
2017-10-05T03:54:57.469Z,0
2017-10-05T03:55:57.556Z,0
2017-10-05T03:56:57.878Z,0
2017-10-05T03:57:57.719Z,0
2017-10-05T03:58:57.819Z,0
2017-10-05T03:59:57.690Z,0
2017-10-05T04:00:57.060Z,0
2017-10-05T04:01:57.652Z,0
2017-10-05T04:02:57.630Z,0
2017-10-05T04:03:57.305Z,0
2017-10-05T04:04:56.970Z,0
2017-10-05T04:05:57.263Z,0
2017-10-05T04:06:57.660Z,0
2017-10-05T04:07:57.540Z,0
2017-10-05T04:08:57.531Z,0
2017-10-05T04:09:57.498Z,0
2017-10-05T04:10:57.502Z,0
2017-10-05T04:11:57.444Z,0
2017-10-05T04:12:57.119Z,0
2017-10-05T04:13:57.406Z,0
2017-10-05T04:14:57.521Z,0
2017-10-05T04:15:57.449Z,0
2017-10-05T04:16:57.352Z,0
2017-10-05T04:17:56.820Z,0
2017-10-05T04:18:56.702Z,0
2017-10-05T04:19:57.086Z,0
2017-10-05T04:20:57.329Z,0
2017-10-05T04:21:56.635Z,0
2017-10-05T04:22:56.923Z,0
2017-10-05T04:23:57.267Z,0
2017-10-05T04:24:57.199Z,0
2017-10-05T04:25:56.599Z,0
2017-10-05T04:26:57.163Z,0
2017-10-05T04:27:56.918Z,0
2017-10-05T04:28:57.121Z,0
2017-10-05T04:29:57.150Z,0
2017-10-05T04:30:56.759Z,0
2017-10-05T04:31:56.845Z,0
2017-10-05T04:32:56.406Z,0
2017-10-05T04:33:56.400Z,0
2017-10-05T04:34:57.101Z,0
2017-10-05T04:35:57.030Z,0
2017-10-05T04:36:56.653Z,0
2017-10-05T04:37:56.609Z,0
2017-10-05T04:38:56.649Z,0
2017-10-05T04:39:56.661Z,0
2017-10-05T04:40:56.253Z,0
2017-10-05T04:41:56.633Z,0
2017-10-05T04:42:56.501Z,0
2017-10-05T04:43:56.809Z,0
2017-10-05T04:44:56.165Z,0
2017-10-05T04:45:56.147Z,0
2017-10-05T04:46:56.132Z,0
2017-10-05T04:47:56.440Z,0
2017-10-05T04:48:56.806Z,0
2017-10-05T04:49:56.449Z,0
2017-10-05T04:50:56.352Z,0
2017-10-05T04:51:56.400Z,0
2017-10-05T04:52:56.366Z,0
2017-10-05T04:53:56.610Z,0
2017-10-05T04:54:56.359Z,0
2017-10-05T04:55:56.330Z,0
2017-10-05T04:56:55.918Z,0
2017-10-05T04:57:56.273Z,0
2017-10-05T04:58:56.241Z,0
2017-10-05T04:59:56.501Z,0
2017-10-05T05:00:56.579Z,0
2017-10-05T05:01:56.138Z,0
2017-10-05T05:02:56.119Z,0
2017-10-05T05:03:56.180Z,0
2017-10-05T05:04:56.073Z,0
2017-10-05T05:05:56.391Z,0
2017-10-05T05:06:56.051Z,0
2017-10-05T05:07:56.021Z,0
2017-10-05T05:08:56.009Z,0
2017-10-05T05:09:55.678Z,0
2017-10-05T05:10:56.395Z,0
2017-10-05T05:11:56.253Z,0
2017-10-05T05:12:56.031Z,0
2017-10-05T05:13:56.238Z,0
2017-10-05T05:14:56.213Z,0
2017-10-05T05:15:56.171Z,0
2017-10-05T05:16:55.537Z,0
2017-10-05T05:17:55.906Z,0
2017-10-05T05:18:55.810Z,0
2017-10-05T05:19:55.490Z,0
2017-10-05T05:20:56.253Z,0
2017-10-05T05:21:56.060Z,0
2017-10-05T05:22:55.729Z,0
2017-10-05T05:23:56.076Z,0
2017-10-05T05:24:55.676Z,0
2017-10-05T05:25:55.977Z,0
2017-10-05T05:26:55.640Z,4
2017-10-05T05:27:55.633Z,0
2017-10-05T05:28:55.600Z,4
2017-10-05T05:29:55.576Z,4
2017-10-05T05:30:55.576Z,8
2017-10-05T05:31:55.893Z,8
2017-10-05T05:32:55.873Z,8
2017-10-05T05:33:55.205Z,8
2017-10-05T05:34:55.211Z,8
2017-10-05T05:35:55.470Z,8
2017-10-05T05:36:55.784Z,12
2017-10-05T05:37:55.477Z,8
2017-10-05T05:38:55.731Z,8
2017-10-05T05:39:55.769Z,12
2017-10-05T05:40:55.061Z,16
2017-10-05T05:41:55.352Z,12
2017-10-05T05:42:55.327Z,16
2017-10-05T05:43:55.313Z,16
2017-10-05T05:44:55.290Z,20
2017-10-05T05:45:55.283Z,20
2017-10-05T05:46:55.563Z,20
2017-10-05T05:47:55.225Z,24
2017-10-05T05:48:55.511Z,36
2017-10-05T05:49:55.202Z,44
2017-10-05T05:50:55.190Z,40
2017-10-05T05:51:55.470Z,36
2017-10-05T05:52:55.471Z,44
2017-10-05T05:53:55.433Z,44
2017-10-05T05:54:55.095Z,52
2017-10-05T05:55:55.402Z,44
2017-10-05T05:56:55.371Z,44
2017-10-05T05:57:55.431Z,44
2017-10-05T05:58:55.015Z,52
2017-10-05T05:59:55.332Z,60
2017-10-05T06:00:54.970Z,56
2017-10-05T06:01:55.284Z,60
2017-10-05T06:02:55.281Z,68
2017-10-05T06:03:55.241Z,60
2017-10-05T06:04:55.221Z,60
2017-10-05T06:05:54.877Z,64
2017-10-05T06:06:55.169Z,84
2017-10-05T06:07:55.153Z,76
2017-10-05T06:08:54.805Z,76
2017-10-05T06:09:54.503Z,68
2017-10-05T06:10:55.150Z,72
2017-10-05T06:11:55.105Z,80
2017-10-05T06:12:55.120Z,92
2017-10-05T06:13:55.035Z,80
2017-10-05T06:14:54.791Z,76
2017-10-05T06:15:54.690Z,88
2017-10-05T06:16:55.077Z,76
2017-10-05T06:17:54.955Z,92
2017-10-05T06:18:55.064Z,104
2017-10-05T06:19:54.927Z,120
2017-10-05T06:20:54.264Z,108
2017-10-05T06:21:54.261Z,148
2017-10-05T06:22:54.545Z,172
2017-10-05T06:23:54.952Z,164
2017-10-05T06:24:53.870Z,180
2017-10-05T06:25:54.790Z,196
2017-10-05T06:26:54.713Z,220
2017-10-05T06:27:54.848Z,196
2017-10-05T06:28:54.751Z,224
2017-10-05T06:29:54.725Z,184
2017-10-05T06:30:54.709Z,180
2017-10-05T06:31:54.698Z,172
2017-10-05T06:32:54.159Z,176
2017-10-05T06:33:54.341Z,220
2017-10-05T06:34:53.981Z,216
2017-10-05T06:35:54.672Z,228
2017-10-05T06:36:54.567Z,264
2017-10-05T06:37:53.925Z,272
2017-10-05T06:38:54.641Z,224
2017-10-05T06:39:54.529Z,164
2017-10-05T06:40:54.510Z,176
2017-10-05T06:41:54.548Z,248
2017-10-05T06:42:53.832Z,192
2017-10-05T06:43:54.171Z,216
2017-10-05T06:44:54.162Z,268
2017-10-05T06:45:54.389Z,316
2017-10-05T06:46:54.101Z,336
2017-10-05T06:47:54.029Z,328
2017-10-05T06:48:53.711Z,332
2017-10-05T06:49:53.679Z,516
2017-10-05T06:50:53.971Z,504
2017-10-05T06:51:53.956Z,420
2017-10-05T06:52:53.929Z,460
2017-10-05T06:53:54.225Z,320
2017-10-05T06:54:53.881Z,328
2017-10-05T06:55:54.180Z,412
2017-10-05T06:56:54.238Z,436
2017-10-05T06:57:53.896Z,500
2017-10-05T06:58:53.517Z,440
2017-10-05T06:59:54.224Z,372
2017-10-05T07:00:53.800Z,380
2017-10-05T07:01:53.762Z,440
2017-10-05T07:02:54.045Z,380
2017-10-05T07:03:54.041Z,276
2017-10-05T07:04:53.997Z,308
2017-10-05T07:05:54.114Z,364
2017-10-05T07:06:53.975Z,452
2017-10-05T07:07:53.757Z,376
2017-10-05T07:08:53.940Z,316
2017-10-05T07:09:53.611Z,332
2017-10-05T07:10:53.913Z,380
2017-10-05T07:11:53.580Z,340
2017-10-05T07:12:53.211Z,356
2017-10-05T07:13:53.840Z,332
2017-10-05T07:14:53.188Z,288
2017-10-05T07:15:53.166Z,368
2017-10-05T07:16:53.170Z,360
2017-10-05T07:17:53.441Z,312
2017-10-05T07:18:53.706Z,364
2017-10-05T07:19:53.718Z,424
2017-10-05T07:20:53.365Z,380
2017-10-05T07:21:53.364Z,348
2017-10-05T07:22:53.401Z,392
2017-10-05T07:23:53.323Z,340
2017-10-05T07:24:53.608Z,400
2017-10-05T07:25:53.621Z,476
2017-10-05T07:26:52.951Z,644
2017-10-05T07:27:52.940Z,452
2017-10-05T07:28:53.221Z,500
2017-10-05T07:29:53.558Z,476
2017-10-05T07:30:53.201Z,608
2017-10-05T07:31:53.483Z,744
2017-10-05T07:32:53.151Z,596
2017-10-05T07:33:53.421Z,500
2017-10-05T07:34:52.801Z,552
2017-10-05T07:35:53.101Z,736
2017-10-05T07:36:53.396Z,820
2017-10-05T07:37:52.734Z,608
2017-10-05T07:38:52.705Z,596
2017-10-05T07:39:53.330Z,552
2017-10-05T07:40:52.997Z,560
2017-10-05T07:41:53.281Z,564
2017-10-05T07:42:52.961Z,568
2017-10-05T07:43:53.234Z,640
2017-10-05T07:44:53.243Z,544
2017-10-05T07:45:52.872Z,660
2017-10-05T07:46:53.233Z,580
2017-10-05T07:47:53.293Z,524
2017-10-05T07:48:52.516Z,632
2017-10-05T07:49:53.132Z,728
2017-10-05T07:50:52.805Z,896
2017-10-05T07:51:52.846Z,768
2017-10-05T07:52:52.894Z,596
2017-10-05T07:53:53.176Z,588
2017-10-05T07:54:52.404Z,868
2017-10-05T07:55:53.013Z,772
2017-10-05T07:56:52.989Z,808
2017-10-05T07:57:52.970Z,868
2017-10-05T07:58:52.662Z,852
2017-10-05T07:59:52.948Z,732
2017-10-05T08:00:52.940Z,636
2017-10-05T08:01:52.898Z,640
2017-10-05T08:02:52.565Z,772
2017-10-05T08:03:52.842Z,696
2017-10-05T08:04:52.839Z,760
2017-10-05T08:05:52.524Z,752
2017-10-05T08:06:52.795Z,996
2017-10-05T08:07:52.521Z,944
2017-10-05T08:08:52.795Z,1016
2017-10-05T08:09:52.764Z,1024
2017-10-05T08:10:52.721Z,792
2017-10-05T08:11:52.712Z,684
2017-10-05T08:12:52.667Z,584
2017-10-05T08:13:52.022Z,648
2017-10-05T08:14:52.650Z,640
2017-10-05T08:15:52.029Z,836
2017-10-05T08:16:52.615Z,856
2017-10-05T08:17:52.577Z,972
2017-10-05T08:18:52.276Z,856
2017-10-05T08:19:52.220Z,824
2017-10-05T08:20:51.923Z,780
2017-10-05T08:21:52.575Z,852
2017-10-05T08:22:51.549Z,884
2017-10-05T08:23:51.834Z,1064
2017-10-05T08:24:51.821Z,1132
2017-10-05T08:25:52.144Z,1032
2017-10-05T08:26:52.423Z,980
2017-10-05T08:27:52.382Z,1176
2017-10-05T08:28:52.395Z,972
2017-10-05T08:29:52.387Z,936
2017-10-05T08:30:52.011Z,764
2017-10-05T08:31:52.297Z,880
2017-10-05T08:32:52.312Z,1104
2017-10-05T08:33:51.649Z,1048
2017-10-05T08:34:52.256Z,948
2017-10-05T08:35:52.252Z,1184
2017-10-05T08:36:52.217Z,1364
2017-10-05T08:37:52.213Z,1632
2017-10-05T08:38:51.839Z,1564
2017-10-05T08:39:51.543Z,1292
2017-10-05T08:40:51.503Z,1672
2017-10-05T08:41:52.107Z,1696
2017-10-05T08:42:52.092Z,1924
2017-10-05T08:43:51.799Z,1752
2017-10-05T08:44:51.747Z,1836
2017-10-05T08:45:52.022Z,1752
2017-10-05T08:46:51.721Z,1448
2017-10-05T08:47:51.994Z,1696
2017-10-05T08:48:51.654Z,1796
2017-10-05T08:49:51.942Z,1420
2017-10-05T08:50:51.311Z,1276
2017-10-05T08:51:51.940Z,1116
2017-10-05T08:52:51.281Z,1380
2017-10-05T08:53:51.602Z,1036
2017-10-05T08:54:51.240Z,1232
2017-10-05T08:55:51.532Z,1224
2017-10-05T08:56:51.498Z,1036
2017-10-05T08:57:51.179Z,944
2017-10-05T08:58:51.162Z,1072
2017-10-05T08:59:51.440Z,1148
2017-10-05T09:00:51.733Z,1216
2017-10-05T09:01:51.722Z,1308
2017-10-05T09:02:51.072Z,1344
2017-10-05T09:03:51.391Z,1872
2017-10-05T09:04:51.662Z,2704
2017-10-05T09:05:51.791Z,2824
2017-10-05T09:06:51.638Z,1812
2017-10-05T09:07:50.777Z,1876
2017-10-05T09:08:50.980Z,1620
2017-10-05T09:09:51.572Z,1076
2017-10-05T09:10:51.262Z,1012
2017-10-05T09:11:50.652Z,1060
2017-10-05T09:12:51.225Z,864
2017-10-05T09:13:51.197Z,1032
2017-10-05T09:14:50.855Z,1412
2017-10-05T09:15:51.150Z,928
2017-10-05T09:16:51.131Z,868
2017-10-05T09:17:51.110Z,1472
2017-10-05T09:18:50.781Z,2440
2017-10-05T09:19:51.060Z,2184
2017-10-05T09:20:51.042Z,2792
2017-10-05T09:21:51.081Z,2332
2017-10-05T09:22:51.061Z,2236
2017-10-05T09:23:51.315Z,1460
2017-10-05T09:24:51.277Z,992
2017-10-05T09:25:50.962Z,1016
2017-10-05T09:26:50.962Z,960
2017-10-05T09:27:50.730Z,1532
2017-10-05T09:28:50.951Z,1816
2017-10-05T09:29:50.891Z,2184
2017-10-05T09:30:51.267Z,2836
2017-10-05T09:31:50.852Z,2124
2017-10-05T09:32:50.883Z,2164
2017-10-05T09:33:51.134Z,1488
2017-10-05T09:34:50.791Z,1480
2017-10-05T09:35:50.881Z,1868
2017-10-05T09:36:51.075Z,1492
2017-10-05T09:37:50.443Z,1212
2017-10-05T09:38:50.468Z,1132
2017-10-05T09:39:51.023Z,1976
2017-10-05T09:40:51.002Z,1560
2017-10-05T09:41:51.163Z,1732
2017-10-05T09:42:50.964Z,1496
2017-10-05T09:43:51.052Z,1844
2017-10-05T09:44:50.612Z,2004
2017-10-05T09:45:50.395Z,1860
2017-10-05T09:46:50.568Z,2288
2017-10-05T09:47:51.001Z,1984
2017-10-05T09:48:50.902Z,2428
2017-10-05T09:49:50.889Z,1924
2017-10-05T09:50:50.520Z,1964
2017-10-05T09:51:50.872Z,2364
2017-10-05T09:52:50.780Z,2304
2017-10-05T09:53:50.763Z,3084
2017-10-05T09:54:50.439Z,3348
2017-10-05T09:55:50.871Z,9336
2017-10-05T09:56:50.396Z,52640
2017-10-05T09:57:50.703Z,52576
2017-10-05T09:58:50.461Z,12520
2017-10-05T09:59:50.372Z,6328
2017-10-05T10:00:50.639Z,6040
2017-10-05T10:01:50.722Z,9312
2017-10-05T10:02:50.752Z,12360
2017-10-05T10:03:50.305Z,41408
2017-10-05T10:04:50.704Z,7000
2017-10-05T10:05:50.256Z,10772
2017-10-05T10:06:50.561Z,7344
2017-10-05T10:07:50.649Z,17504
2017-10-05T10:08:50.516Z,9288
2017-10-05T10:09:50.504Z,11728
2017-10-05T10:10:50.492Z,8068
2017-10-05T10:11:50.471Z,9776
2017-10-05T10:12:50.467Z,21088
2017-10-05T10:13:50.512Z,11224
2017-10-05T10:14:50.082Z,9544
2017-10-05T10:15:50.091Z,8820
2017-10-05T10:16:50.420Z,13912
2017-10-05T10:17:50.383Z,11380
2017-10-05T10:18:50.352Z,27616
2017-10-05T10:19:50.389Z,7872
2017-10-05T10:20:50.315Z,4592
2017-10-05T10:21:50.309Z,4260
2017-10-05T10:22:49.966Z,4864
2017-10-05T10:23:50.286Z,25344
2017-10-05T10:24:49.928Z,9868
2017-10-05T10:25:49.923Z,8084
2017-10-05T10:26:50.276Z,23648
2017-10-05T10:27:49.891Z,11216
2017-10-05T10:28:49.896Z,32160
2017-10-05T10:29:50.151Z,20544
2017-10-05T10:30:49.847Z,29024
2017-10-05T10:31:50.181Z,12116
2017-10-05T10:32:49.805Z,8052
2017-10-05T10:33:49.809Z,10320
2017-10-05T10:34:49.456Z,6228
2017-10-05T10:35:50.102Z,4068
2017-10-05T10:36:49.745Z,3860
2017-10-05T10:37:49.754Z,2824
2017-10-05T10:38:49.408Z,2476
2017-10-05T10:39:50.071Z,2456
2017-10-05T10:40:49.701Z,2656
2017-10-05T10:41:49.718Z,6260
2017-10-05T10:42:50.015Z,8340
2017-10-05T10:43:49.642Z,12244
2017-10-05T10:44:49.954Z,7876
2017-10-05T10:45:49.933Z,14656
2017-10-05T10:46:49.592Z,6980
2017-10-05T10:47:49.929Z,5640
2017-10-05T10:48:49.862Z,13608
2017-10-05T10:49:49.853Z,22688
2017-10-05T10:50:49.846Z,23328
2017-10-05T10:51:49.503Z,8352
2017-10-05T10:52:49.501Z,7452
2017-10-05T10:53:49.791Z,7132
2017-10-05T10:54:49.482Z,7752
2017-10-05T10:55:49.798Z,8940
2017-10-05T10:56:49.431Z,13448
2017-10-05T10:57:49.103Z,9364
2017-10-05T10:58:49.720Z,8800
2017-10-05T10:59:49.403Z,5780
2017-10-05T11:00:49.663Z,8260
2017-10-05T11:01:49.683Z,7388
2017-10-05T11:02:49.674Z,10240
2017-10-05T11:03:49.650Z,7384
2017-10-05T11:04:49.374Z,6924
2017-10-05T11:05:49.616Z,9468
2017-10-05T11:06:49.285Z,21184
2017-10-05T11:07:49.571Z,12172
2017-10-05T11:08:49.572Z,16192
2017-10-05T11:09:49.538Z,20000
2017-10-05T11:10:49.212Z,19136
2017-10-05T11:11:49.194Z,17280
2017-10-05T11:12:48.859Z,16672
2017-10-05T11:13:49.156Z,19808
2017-10-05T11:14:48.841Z,18688
2017-10-05T11:15:49.452Z,17248
2017-10-05T11:16:49.453Z,10092
2017-10-05T11:17:49.419Z,19936
2017-10-05T11:18:49.097Z,13152
2017-10-05T11:19:49.389Z,9992
2017-10-05T11:20:49.394Z,8992
2017-10-05T11:21:49.364Z,7536
2017-10-05T11:22:49.034Z,6000
2017-10-05T11:23:49.330Z,4856
2017-10-05T11:24:49.014Z,3852
2017-10-05T11:25:48.990Z,3188
2017-10-05T11:26:49.291Z,2896
2017-10-05T11:27:48.985Z,2472
2017-10-05T11:28:48.952Z,2680
2017-10-05T11:29:48.972Z,3176
2017-10-05T11:30:49.240Z,5004
2017-10-05T11:31:49.200Z,5408
2017-10-05T11:32:49.200Z,5596
2017-10-05T11:33:48.954Z,15552
2017-10-05T11:34:48.549Z,15328
2017-10-05T11:35:48.835Z,11840
2017-10-05T11:36:49.135Z,7568
2017-10-05T11:37:49.131Z,10804
2017-10-05T11:38:49.084Z,12184
2017-10-05T11:39:48.780Z,9060
2017-10-05T11:40:49.071Z,8304
2017-10-05T11:41:49.043Z,8652
2017-10-05T11:42:48.412Z,8108
2017-10-05T11:43:48.771Z,7896
2017-10-05T11:44:49.023Z,8876
2017-10-05T11:45:48.745Z,6928
2017-10-05T11:46:48.400Z,5208
2017-10-05T11:47:48.686Z,3788
2017-10-05T11:48:48.941Z,2576
2017-10-05T11:49:48.921Z,2052
2017-10-05T11:50:48.919Z,1852
2017-10-05T11:51:48.278Z,1956
2017-10-05T11:52:48.884Z,2096
2017-10-05T11:53:48.861Z,2220
2017-10-05T11:54:48.844Z,2496
2017-10-05T11:55:48.522Z,1836
2017-10-05T11:56:48.807Z,1396
2017-10-05T11:57:48.794Z,1252
2017-10-05T11:58:48.471Z,1348
2017-10-05T11:59:48.470Z,1604
2017-10-05T12:00:48.742Z,1744
2017-10-05T12:01:48.735Z,2196
2017-10-05T12:02:48.458Z,2884
2017-10-05T12:03:48.386Z,10272
2017-10-05T12:04:48.107Z,16224
2017-10-05T12:05:48.663Z,16960
2017-10-05T12:06:48.731Z,8956
2017-10-05T12:07:48.634Z,15100
2017-10-05T12:08:48.362Z,10272
2017-10-05T12:09:48.592Z,12168
2017-10-05T12:10:48.580Z,12892
2017-10-05T12:11:48.244Z,11888
2017-10-05T12:12:48.255Z,6008
2017-10-05T12:13:48.541Z,5552
2017-10-05T12:14:48.190Z,5524
2017-10-05T12:15:48.501Z,5220
2017-10-05T12:16:48.183Z,10544
2017-10-05T12:17:48.142Z,5804
2017-10-05T12:18:48.158Z,6816
2017-10-05T12:19:48.441Z,5704
2017-10-05T12:20:48.163Z,4476
2017-10-05T12:21:48.098Z,12664
2017-10-05T12:22:48.391Z,9636
2017-10-05T12:23:48.067Z,10284
2017-10-05T12:24:48.094Z,8212
2017-10-05T12:25:48.035Z,6700
2017-10-05T12:26:48.034Z,9272
2017-10-05T12:27:48.312Z,6476
2017-10-05T12:28:47.986Z,6736
2017-10-05T12:29:47.943Z,5552
2017-10-05T12:30:48.265Z,4548
2017-10-05T12:31:47.934Z,4668
2017-10-05T12:32:48.243Z,4320
2017-10-05T12:33:48.201Z,3504
2017-10-05T12:34:48.230Z,3732
2017-10-05T12:35:47.862Z,4284
2017-10-05T12:36:48.192Z,3648
2017-10-05T12:37:48.172Z,3400
2017-10-05T12:38:48.185Z,4012
2017-10-05T12:39:48.103Z,8564
2017-10-05T12:40:48.103Z,11080
2017-10-05T12:41:47.756Z,11024
2017-10-05T12:42:48.072Z,10056
2017-10-05T12:43:47.719Z,9660
2017-10-05T12:44:48.105Z,9056
2017-10-05T12:45:47.711Z,9092
2017-10-05T12:46:47.694Z,8992
2017-10-05T12:47:48.004Z,8940
2017-10-05T12:48:47.976Z,8864
2017-10-05T12:49:47.625Z,8868
2017-10-05T12:50:47.944Z,9104
2017-10-05T12:51:47.615Z,9664
2017-10-05T12:52:47.643Z,8300
2017-10-05T12:53:47.561Z,9200
2017-10-05T12:54:47.947Z,8188
2017-10-05T12:55:47.555Z,7180
2017-10-05T12:56:47.903Z,5532
2017-10-05T12:57:47.513Z,9560
2017-10-05T12:58:47.847Z,7260
2017-10-05T12:59:47.491Z,6248
2017-10-05T13:00:47.917Z,5744
2017-10-05T13:01:47.766Z,6352
2017-10-05T13:02:47.890Z,9848
2017-10-05T13:03:47.758Z,5936
2017-10-05T13:04:46.785Z,5260
2017-10-05T13:05:47.702Z,3960
2017-10-05T13:06:47.373Z,4108
2017-10-05T13:07:47.353Z,3492
2017-10-05T13:08:47.694Z,3632
2017-10-05T13:09:47.326Z,4072
2017-10-05T13:10:47.309Z,4920
2017-10-05T13:11:47.311Z,7436
2017-10-05T13:12:47.596Z,5396
2017-10-05T13:13:47.582Z,4900
2017-10-05T13:14:46.929Z,9516
2017-10-05T13:15:47.228Z,9400
2017-10-05T13:16:47.512Z,9140
2017-10-05T13:17:47.520Z,9020
2017-10-05T13:18:47.495Z,8976
2017-10-05T13:19:47.477Z,9232
2017-10-05T13:20:47.471Z,9256
2017-10-05T13:21:47.442Z,9288
2017-10-05T13:22:47.424Z,8996
2017-10-05T13:23:47.431Z,8896
2017-10-05T13:24:47.070Z,8844
2017-10-05T13:25:47.383Z,8740
2017-10-05T13:26:47.378Z,8860
2017-10-05T13:27:47.044Z,8820
2017-10-05T13:28:47.016Z,8648
2017-10-05T13:29:46.699Z,8968
2017-10-05T13:30:47.322Z,9128
2017-10-05T13:31:47.284Z,9204
2017-10-05T13:32:47.263Z,9164
2017-10-05T13:33:46.982Z,9096
2017-10-05T13:34:46.923Z,9500
2017-10-05T13:35:46.593Z,10060
2017-10-05T13:36:46.882Z,9672
2017-10-05T13:37:46.872Z,9036
2017-10-05T13:38:46.873Z,8752
2017-10-05T13:39:47.163Z,8600
2017-10-05T13:40:47.173Z,8592
2017-10-05T13:41:46.835Z,8568
2017-10-05T13:42:46.823Z,8544
2017-10-05T13:43:47.104Z,8416
2017-10-05T13:44:47.083Z,8752
2017-10-05T13:45:46.486Z,8608
2017-10-05T13:46:46.449Z,8468
2017-10-05T13:47:46.726Z,8516
2017-10-05T13:48:46.735Z,8428
2017-10-05T13:49:47.012Z,8748
2017-10-05T13:50:46.992Z,9132
2017-10-05T13:51:46.735Z,8872
2017-10-05T13:52:46.428Z,8632
2017-10-05T13:53:46.953Z,8464
2017-10-05T13:54:46.642Z,8400
2017-10-05T13:55:46.620Z,8396
2017-10-05T13:56:46.910Z,8436